sensor_id;sensor_type;location;lat;lon;timestamp;temperature;humidity
16627;DHT22;8427;52.204;7.202;2023-03-25T00:00:23;8.70;82.70
16627;DHT22;8427;52.204;7.202;2023-03-25T00:02:51;8.80;83.10
16627;DHT22;8427;52.204;7.202;2023-03-25T00:05:20;8.70;83.00
16627;DHT22;8427;52.204;7.202;2023-03-25T00:07:50;8.70;83.40
16627;DHT22;8427;52.204;7.202;2023-03-25T00:10:18;8.80;83.10
16627;DHT22;8427;52.204;7.202;2023-03-25T00:12:48;8.80;83.10
16627;DHT22;8427;52.204;7.202;2023-03-25T00:15:16;8.80;83.40
16627;DHT22;8427;52.204;7.202;2023-03-25T00:17:44;8.70;83.40
16627;DHT22;8427;52.204;7.202;2023-03-25T00:20:12;8.70;83.30
16627;DHT22;8427;52.204;7.202;2023-03-25T00:22:40;8.80;83.40
16627;DHT22;8427;52.204;7.202;2023-03-25T00:25:12;8.60;83.30
16627;DHT22;8427;52.204;7.202;2023-03-25T00:27:45;8.70;83.20
16627;DHT22;8427;52.204;7.202;2023-03-25T00:30:16;8.60;83.30
16627;DHT22;8427;52.204;7.202;2023-03-25T00:32:45;8.60;83.40
16627;DHT22;8427;52.204;7.202;2023-03-25T00:35:16;8.60;83.20
16627;DHT22;8427;52.204;7.202;2023-03-25T00:37:45;8.70;83.10
16627;DHT22;8427;52.204;7.202;2023-03-25T00:40:13;8.60;82.90
16627;DHT22;8427;52.204;7.202;2023-03-25T00:42:41;8.60;83.10
16627;DHT22;8427;52.204;7.202;2023-03-25T00:45:10;8.70;82.60
16627;DHT22;8427;52.204;7.202;2023-03-25T00:47:39;8.80;82.60
16627;DHT22;8427;52.204;7.202;2023-03-25T00:50:09;8.70;82.90
16627;DHT22;8427;52.204;7.202;2023-03-25T00:52:37;8.70;82.70
16627;DHT22;8427;52.204;7.202;2023-03-25T00:55:05;8.70;82.90
16627;DHT22;8427;52.204;7.202;2023-03-25T00:57:33;8.70;82.90
16627;DHT22;8427;52.204;7.202;2023-03-25T01:00:02;8.70;82.80
16627;DHT22;8427;52.204;7.202;2023-03-25T01:02:32;8.80;82.50
16627;DHT22;8427;52.204;7.202;2023-03-25T01:05:01;8.80;82.80
16627;DHT22;8427;52.204;7.202;2023-03-25T01:07:30;8.70;82.80
16627;DHT22;8427;52.204;7.202;2023-03-25T01:09:58;8.80;82.80
16627;DHT22;8427;52.204;7.202;2023-03-25T01:12:26;8.70;82.70
16627;DHT22;8427;52.204;7.202;2023-03-25T01:14:55;8.80;82.60
16627;DHT22;8427;52.204;7.202;2023-03-25T01:17:23;8.90;82.60
16627;DHT22;8427;52.204;7.202;2023-03-25T01:19:50;8.80;82.70
16627;DHT22;8427;52.204;7.202;2023-03-25T01:22:20;8.80;82.70
16627;DHT22;8427;52.204;7.202;2023-03-25T01:24:48;8.80;82.80
16627;DHT22;8427;52.204;7.202;2023-03-25T01:27:15;8.90;82.70
16627;DHT22;8427;52.204;7.202;2023-03-25T01:29:43;8.90;82.50
16627;DHT22;8427;52.204;7.202;2023-03-25T01:32:11;8.80;82.50
16627;DHT22;8427;52.204;7.202;2023-03-25T01:34:39;8.90;82.20
16627;DHT22;8427;52.204;7.202;2023-03-25T01:37:08;8.90;82.30
16627;DHT22;8427;52.204;7.202;2023-03-25T01:39:37;8.80;82.30
16627;DHT22;8427;52.204;7.202;2023-03-25T01:42:05;8.90;82.10
16627;DHT22;8427;52.204;7.202;2023-03-25T01:47:39;8.90;81.70
16627;DHT22;8427;52.204;7.202;2023-03-25T01:50:07;8.70;81.80
16627;DHT22;8427;52.204;7.202;2023-03-25T01:52:43;8.90;81.50
16627;DHT22;8427;52.204;7.202;2023-03-25T01:55:14;8.90;81.50
16627;DHT22;8427;52.204;7.202;2023-03-25T01:57:46;8.90;81.10
16627;DHT22;8427;52.204;7.202;2023-03-25T02:00:15;9.00;81.50
16627;DHT22;8427;52.204;7.202;2023-03-25T02:02:43;9.00;81.30
16627;DHT22;8427;52.204;7.202;2023-03-25T02:05:17;8.90;81.30
16627;DHT22;8427;52.204;7.202;2023-03-25T02:07:48;8.80;80.80
16627;DHT22;8427;52.204;7.202;2023-03-25T02:10:18;8.90;81.00
16627;DHT22;8427;52.204;7.202;2023-03-25T02:12:47;9.00;80.90
16627;DHT22;8427;52.204;7.202;2023-03-25T02:15:16;8.70;81.00
16627;DHT22;8427;52.204;7.202;2023-03-25T02:18:00;8.90;80.80
16627;DHT22;8427;52.204;7.202;2023-03-25T02:27:05;8.90;80.80
16627;DHT22;8427;52.204;7.202;2023-03-25T02:29:56;8.80;80.50
16627;DHT22;8427;52.204;7.202;2023-03-25T02:32:44;8.60;80.50
16627;DHT22;8427;52.204;7.202;2023-03-25T02:35:28;8.80;80.70
16627;DHT22;8427;52.204;7.202;2023-03-25T02:38:14;8.80;80.30
16627;DHT22;8427;52.204;7.202;2023-03-25T02:40:47;8.80;80.20
16627;DHT22;8427;52.204;7.202;2023-03-25T02:43:23;8.90;80.00
16627;DHT22;8427;52.204;7.202;2023-03-25T02:45:55;8.80;79.70
16627;DHT22;8427;52.204;7.202;2023-03-25T02:48:28;8.90;79.80
16627;DHT22;8427;52.204;7.202;2023-03-25T02:51:03;8.80;79.70
16627;DHT22;8427;52.204;7.202;2023-03-25T02:53:35;8.90;79.30
16627;DHT22;8427;52.204;7.202;2023-03-25T02:56:07;9.00;79.50
16627;DHT22;8427;52.204;7.202;2023-03-25T02:58:38;8.90;79.60
16627;DHT22;8427;52.204;7.202;2023-03-25T03:01:07;8.80;79.60
16627;DHT22;8427;52.204;7.202;2023-03-25T03:03:35;8.90;79.50
16627;DHT22;8427;52.204;7.202;2023-03-25T03:06:04;8.90;79.60
16627;DHT22;8427;52.204;7.202;2023-03-25T03:08:45;8.70;79.70
16627;DHT22;8427;52.204;7.202;2023-03-25T03:11:21;8.90;79.20
16627;DHT22;8427;52.204;7.202;2023-03-25T03:14:05;8.90;79.20
16627;DHT22;8427;52.204;7.202;2023-03-25T03:16:45;8.80;79.70
16627;DHT22;8427;52.204;7.202;2023-03-25T03:19:32;8.90;80.60
16627;DHT22;8427;52.204;7.202;2023-03-25T03:22:13;8.60;80.90
16627;DHT22;8427;52.204;7.202;2023-03-25T03:24:47;8.70;81.20
16627;DHT22;8427;52.204;7.202;2023-03-25T03:27:21;8.70;81.00
16627;DHT22;8427;52.204;7.202;2023-03-25T03:29:58;8.70;80.70
16627;DHT22;8427;52.204;7.202;2023-03-25T03:32:33;8.70;80.80
16627;DHT22;8427;52.204;7.202;2023-03-25T03:35:08;8.70;80.70
16627;DHT22;8427;52.204;7.202;2023-03-25T03:37:40;8.70;80.80
16627;DHT22;8427;52.204;7.202;2023-03-25T03:40:14;8.70;81.50
16627;DHT22;8427;52.204;7.202;2023-03-25T03:42:45;8.60;82.10
16627;DHT22;8427;52.204;7.202;2023-03-25T03:45:18;8.60;82.60
16627;DHT22;8427;52.204;7.202;2023-03-25T03:47:51;8.60;83.00
16627;DHT22;8427;52.204;7.202;2023-03-25T03:50:24;8.60;82.50
16627;DHT22;8427;52.204;7.202;2023-03-25T03:52:59;8.60;82.30
16627;DHT22;8427;52.204;7.202;2023-03-25T03:55:32;8.50;82.20
16627;DHT22;8427;52.204;7.202;2023-03-25T03:58:07;8.60;82.00
16627;DHT22;8427;52.204;7.202;2023-03-25T04:00:40;8.60;82.30
16627;DHT22;8427;52.204;7.202;2023-03-25T04:03:13;8.60;82.00
16627;DHT22;8427;52.204;7.202;2023-03-25T04:05:45;8.60;81.80
16627;DHT22;8427;52.204;7.202;2023-03-25T04:08:26;8.70;81.60
16627;DHT22;8427;52.204;7.202;2023-03-25T04:11:00;8.70;81.50
16627;DHT22;8427;52.204;7.202;2023-03-25T04:13:32;8.40;81.30
16627;DHT22;8427;52.204;7.202;2023-03-25T04:16:01;8.60;81.40
16627;DHT22;8427;52.204;7.202;2023-03-25T04:18:29;8.50;81.50
16627;DHT22;8427;52.204;7.202;2023-03-25T04:20:59;8.70;81.50
16627;DHT22;8427;52.204;7.202;2023-03-25T04:23:28;8.70;81.80
16627;DHT22;8427;52.204;7.202;2023-03-25T04:25:58;8.50;81.90
16627;DHT22;8427;52.204;7.202;2023-03-25T04:28:28;8.50;82.00
16627;DHT22;8427;52.204;7.202;2023-03-25T04:30:57;8.50;82.60
16627;DHT22;8427;52.204;7.202;2023-03-25T04:33:26;8.60;83.10
16627;DHT22;8427;52.204;7.202;2023-03-25T04:35:55;8.50;83.10
16627;DHT22;8427;52.204;7.202;2023-03-25T04:38:23;8.20;83.80
16627;DHT22;8427;52.204;7.202;2023-03-25T04:40:51;8.40;84.30
16627;DHT22;8427;52.204;7.202;2023-03-25T04:43:20;8.30;84.60
16627;DHT22;8427;52.204;7.202;2023-03-25T04:45:49;8.30;85.10
16627;DHT22;8427;52.204;7.202;2023-03-25T04:48:22;8.30;85.20
16627;DHT22;8427;52.204;7.202;2023-03-25T04:50:51;8.20;85.10
16627;DHT22;8427;52.204;7.202;2023-03-25T04:53:21;8.20;85.20
16627;DHT22;8427;52.204;7.202;2023-03-25T04:55:49;8.20;85.10
16627;DHT22;8427;52.204;7.202;2023-03-25T04:58:17;8.20;85.40
16627;DHT22;8427;52.204;7.202;2023-03-25T05:00:49;8.10;85.30
16627;DHT22;8427;52.204;7.202;2023-03-25T05:03:18;8.20;85.60
16627;DHT22;8427;52.204;7.202;2023-03-25T05:05:49;8.00;86.10
16627;DHT22;8427;52.204;7.202;2023-03-25T05:08:19;8.10;85.90
16627;DHT22;8427;52.204;7.202;2023-03-25T05:10:48;8.20;85.70
16627;DHT22;8427;52.204;7.202;2023-03-25T05:13:16;8.10;85.80
16627;DHT22;8427;52.204;7.202;2023-03-25T05:15:46;8.10;85.60
16627;DHT22;8427;52.204;7.202;2023-03-25T05:18:15;8.00;85.50
16627;DHT22;8427;52.204;7.202;2023-03-25T05:20:45;8.00;85.30
16627;DHT22;8427;52.204;7.202;2023-03-25T05:23:16;8.10;85.00
16627;DHT22;8427;52.204;7.202;2023-03-25T05:25:45;8.00;84.70
16627;DHT22;8427;52.204;7.202;2023-03-25T05:28:13;8.00;84.90
16627;DHT22;8427;52.204;7.202;2023-03-25T05:30:42;8.10;84.50
16627;DHT22;8427;52.204;7.202;2023-03-25T05:33:14;8.20;84.10
16627;DHT22;8427;52.204;7.202;2023-03-25T05:35:43;8.20;84.30
16627;DHT22;8427;52.204;7.202;2023-03-25T05:38:15;8.30;84.00
16627;DHT22;8427;52.204;7.202;2023-03-25T05:40:44;8.30;84.30
16627;DHT22;8427;52.204;7.202;2023-03-25T05:43:13;8.20;84.10
16627;DHT22;8427;52.204;7.202;2023-03-25T05:45:41;8.20;83.90
16627;DHT22;8427;52.204;7.202;2023-03-25T05:48:10;8.20;84.00
16627;DHT22;8427;52.204;7.202;2023-03-25T05:50:39;8.20;84.20
16627;DHT22;8427;52.204;7.202;2023-03-25T05:53:10;8.30;83.80
16627;DHT22;8427;52.204;7.202;2023-03-25T05:55:39;8.20;83.80
16627;DHT22;8427;52.204;7.202;2023-03-25T05:58:06;8.20;83.70
16627;DHT22;8427;52.204;7.202;2023-03-25T06:00:34;8.30;83.70
16627;DHT22;8427;52.204;7.202;2023-03-25T06:03:05;8.50;83.90
16627;DHT22;8427;52.204;7.202;2023-03-25T06:05:33;8.40;83.70
16627;DHT22;8427;52.204;7.202;2023-03-25T06:08:03;8.30;83.50
16627;DHT22;8427;52.204;7.202;2023-03-25T06:10:31;8.10;83.80
16627;DHT22;8427;52.204;7.202;2023-03-25T06:12:59;8.50;84.00
16627;DHT22;8427;52.204;7.202;2023-03-25T06:15:27;8.40;84.40
16627;DHT22;8427;52.204;7.202;2023-03-25T06:17:59;8.30;84.40
16627;DHT22;8427;52.204;7.202;2023-03-25T06:20:27;8.40;84.30
16627;DHT22;8427;52.204;7.202;2023-03-25T06:22:55;8.40;84.20
16627;DHT22;8427;52.204;7.202;2023-03-25T06:25:24;8.50;84.00
16627;DHT22;8427;52.204;7.202;2023-03-25T06:27:53;8.50;83.40
16627;DHT22;8427;52.204;7.202;2023-03-25T06:30:24;8.60;83.30
16627;DHT22;8427;52.204;7.202;2023-03-25T06:32:52;8.70;83.10
16627;DHT22;8427;52.204;7.202;2023-03-25T06:35:21;8.50;82.60
16627;DHT22;8427;52.204;7.202;2023-03-25T06:37:49;8.70;82.50
16627;DHT22;8427;52.204;7.202;2023-03-25T06:40:17;8.80;81.90
16627;DHT22;8427;52.204;7.202;2023-03-25T06:42:47;8.60;81.50
16627;DHT22;8427;52.204;7.202;2023-03-25T06:45:15;8.70;81.80
16627;DHT22;8427;52.204;7.202;2023-03-25T06:47:43;8.50;81.70
16627;DHT22;8427;52.204;7.202;2023-03-25T06:50:10;8.60;81.50
16627;DHT22;8427;52.204;7.202;2023-03-25T06:52:38;8.50;81.80
16627;DHT22;8427;52.204;7.202;2023-03-25T06:55:07;8.70;81.80
16627;DHT22;8427;52.204;7.202;2023-03-25T06:57:35;8.60;81.40
16627;DHT22;8427;52.204;7.202;2023-03-25T07:00:06;8.70;81.40
16627;DHT22;8427;52.204;7.202;2023-03-25T07:02:35;8.60;81.50
16627;DHT22;8427;52.204;7.202;2023-03-25T07:05:03;8.70;81.20
16627;DHT22;8427;52.204;7.202;2023-03-25T07:07:31;8.70;80.90
16627;DHT22;8427;52.204;7.202;2023-03-25T07:09:59;8.70;81.00
16627;DHT22;8427;52.204;7.202;2023-03-25T07:12:27;8.80;81.40
16627;DHT22;8427;52.204;7.202;2023-03-25T07:14:56;8.90;81.30
16627;DHT22;8427;52.204;7.202;2023-03-25T07:17:26;8.80;80.90
16627;DHT22;8427;52.204;7.202;2023-03-25T07:19:54;8.80;81.30
16627;DHT22;8427;52.204;7.202;2023-03-25T07:22:21;8.80;80.70
16627;DHT22;8427;52.204;7.202;2023-03-25T07:24:50;8.90;80.70
16627;DHT22;8427;52.204;7.202;2023-03-25T07:27:18;9.00;81.20
16627;DHT22;8427;52.204;7.202;2023-03-25T07:29:46;8.90;80.50
16627;DHT22;8427;52.204;7.202;2023-03-25T07:32:14;9.10;80.50
16627;DHT22;8427;52.204;7.202;2023-03-25T07:34:43;9.20;80.20
16627;DHT22;8427;52.204;7.202;2023-03-25T07:37:11;9.20;79.80
16627;DHT22;8427;52.204;7.202;2023-03-25T07:39:39;9.30;80.30
16627;DHT22;8427;52.204;7.202;2023-03-25T07:42:07;9.40;79.90
16627;DHT22;8427;52.204;7.202;2023-03-25T07:44:35;9.30;79.60
16627;DHT22;8427;52.204;7.202;2023-03-25T07:47:03;9.20;79.40
16627;DHT22;8427;52.204;7.202;2023-03-25T07:49:31;9.10;79.20
16627;DHT22;8427;52.204;7.202;2023-03-25T07:52:00;9.20;79.70
16627;DHT22;8427;52.204;7.202;2023-03-25T07:54:29;9.20;79.60
16627;DHT22;8427;52.204;7.202;2023-03-25T07:56:57;9.30;79.20
16627;DHT22;8427;52.204;7.202;2023-03-25T07:59:26;9.40;79.40
16627;DHT22;8427;52.204;7.202;2023-03-25T08:01:55;9.30;79.00
16627;DHT22;8427;52.204;7.202;2023-03-25T08:04:23;9.10;78.90
16627;DHT22;8427;52.204;7.202;2023-03-25T08:06:51;9.10;79.00
16627;DHT22;8427;52.204;7.202;2023-03-25T08:09:20;9.30;78.90
16627;DHT22;8427;52.204;7.202;2023-03-25T08:11:48;9.40;78.60
16627;DHT22;8427;52.204;7.202;2023-03-25T08:14:16;9.50;77.30
16627;DHT22;8427;52.204;7.202;2023-03-25T08:16:45;9.50;76.70
16627;DHT22;8427;52.204;7.202;2023-03-25T08:19:13;10.00;76.30
16627;DHT22;8427;52.204;7.202;2023-03-25T08:21:41;9.90;74.50
16627;DHT22;8427;52.204;7.202;2023-03-25T08:24:08;10.10;75.80
16627;DHT22;8427;52.204;7.202;2023-03-25T08:26:38;10.20;74.90
16627;DHT22;8427;52.204;7.202;2023-03-25T08:29:06;10.20;74.30
16627;DHT22;8427;52.204;7.202;2023-03-25T08:31:35;10.20;74.30
16627;DHT22;8427;52.204;7.202;2023-03-25T08:34:05;10.20;74.90
16627;DHT22;8427;52.204;7.202;2023-03-25T08:36:33;10.00;76.30
16627;DHT22;8427;52.204;7.202;2023-03-25T08:39:05;10.00;76.60
16627;DHT22;8427;52.204;7.202;2023-03-25T08:41:38;10.00;76.10
16627;DHT22;8427;52.204;7.202;2023-03-25T08:44:07;9.80;75.80
16627;DHT22;8427;52.204;7.202;2023-03-25T08:46:35;9.80;77.10
16627;DHT22;8427;52.204;7.202;2023-03-25T08:49:03;9.50;77.80
16627;DHT22;8427;52.204;7.202;2023-03-25T08:51:31;9.40;79.00
16627;DHT22;8427;52.204;7.202;2023-03-25T08:53:59;9.50;79.60
16627;DHT22;8427;52.204;7.202;2023-03-25T08:56:28;9.30;79.40
16627;DHT22;8427;52.204;7.202;2023-03-25T08:58:57;9.40;78.90
16627;DHT22;8427;52.204;7.202;2023-03-25T09:01:25;9.40;79.00
16627;DHT22;8427;52.204;7.202;2023-03-25T09:03:53;9.30;79.50
16627;DHT22;8427;52.204;7.202;2023-03-25T09:06:21;9.30;78.80
16627;DHT22;8427;52.204;7.202;2023-03-25T09:08:49;9.20;80.10
16627;DHT22;8427;52.204;7.202;2023-03-25T09:11:17;9.20;79.80
16627;DHT22;8427;52.204;7.202;2023-03-25T09:14:03;9.20;79.50
16627;DHT22;8427;52.204;7.202;2023-03-25T09:16:31;9.30;79.20
16627;DHT22;8427;52.204;7.202;2023-03-25T09:19:00;9.40;78.70
16627;DHT22;8427;52.204;7.202;2023-03-25T09:21:28;9.60;78.60
16627;DHT22;8427;52.204;7.202;2023-03-25T09:23:56;9.60;77.40
16627;DHT22;8427;52.204;7.202;2023-03-25T09:26:24;9.90;76.90
16627;DHT22;8427;52.204;7.202;2023-03-25T09:28:52;10.00;76.80
16627;DHT22;8427;52.204;7.202;2023-03-25T09:31:23;10.20;76.50
16627;DHT22;8427;52.204;7.202;2023-03-25T09:33:51;10.50;76.20
16627;DHT22;8427;52.204;7.202;2023-03-25T09:36:19;10.80;75.60
16627;DHT22;8427;52.204;7.202;2023-03-25T09:38:47;11.00;74.80
16627;DHT22;8427;52.204;7.202;2023-03-25T09:41:25;11.00;75.20
16627;DHT22;8427;52.204;7.202;2023-03-25T09:44:03;10.80;75.30
16627;DHT22;8427;52.204;7.202;2023-03-25T09:46:36;10.70;76.40
16627;DHT22;8427;52.204;7.202;2023-03-25T09:49:07;10.80;76.10
16627;DHT22;8427;52.204;7.202;2023-03-25T09:51:40;10.80;76.70
16627;DHT22;8427;52.204;7.202;2023-03-25T09:54:16;11.10;77.40
16627;DHT22;8427;52.204;7.202;2023-03-25T09:56:47;11.10;75.90
16627;DHT22;8427;52.204;7.202;2023-03-25T09:59:18;11.10;74.90
16627;DHT22;8427;52.204;7.202;2023-03-25T10:01:53;11.00;74.40
16627;DHT22;8427;52.204;7.202;2023-03-25T10:04:39;11.00;74.20
16627;DHT22;8427;52.204;7.202;2023-03-25T10:07:20;11.00;75.50
16627;DHT22;8427;52.204;7.202;2023-03-25T10:09:55;11.00;75.60
16627;DHT22;8427;52.204;7.202;2023-03-25T10:12:32;11.10;73.60
16627;DHT22;8427;52.204;7.202;2023-03-25T10:15:11;11.20;74.10
16627;DHT22;8427;52.204;7.202;2023-03-25T10:17:52;11.20;71.90
16627;DHT22;8427;52.204;7.202;2023-03-25T10:20:33;11.20;73.70
16627;DHT22;8427;52.204;7.202;2023-03-25T10:23:13;11.20;73.00
16627;DHT22;8427;52.204;7.202;2023-03-25T10:25:46;11.20;73.50
16627;DHT22;8427;52.204;7.202;2023-03-25T10:28:19;11.30;75.40
16627;DHT22;8427;52.204;7.202;2023-03-25T10:30:51;11.20;75.80
16627;DHT22;8427;52.204;7.202;2023-03-25T10:33:28;10.80;77.30
16627;DHT22;8427;52.204;7.202;2023-03-25T10:35:59;10.60;78.50
16627;DHT22;8427;52.204;7.202;2023-03-25T10:38:29;10.40;79.80
16627;DHT22;8427;52.204;7.202;2023-03-25T10:41:10;10.20;80.10
16627;DHT22;8427;52.204;7.202;2023-03-25T10:43:40;10.00;81.20
16627;DHT22;8427;52.204;7.202;2023-03-25T10:46:14;9.70;82.50
16627;DHT22;8427;52.204;7.202;2023-03-25T10:48:45;9.60;84.00
16627;DHT22;8427;52.204;7.202;2023-03-25T10:51:15;9.50;84.10
16627;DHT22;8427;52.204;7.202;2023-03-25T10:53:46;9.40;84.90
16627;DHT22;8427;52.204;7.202;2023-03-25T10:56:17;9.60;85.50
16627;DHT22;8427;52.204;7.202;2023-03-25T10:58:49;9.50;85.20
16627;DHT22;8427;52.204;7.202;2023-03-25T11:01:20;9.60;84.60
16627;DHT22;8427;52.204;7.202;2023-03-25T11:03:50;9.30;83.10
16627;DHT22;8427;52.204;7.202;2023-03-25T11:06:23;9.00;82.90
16627;DHT22;8427;52.204;7.202;2023-03-25T11:08:57;8.70;83.50
16627;DHT22;8427;52.204;7.202;2023-03-25T11:11:30;8.50;84.80
16627;DHT22;8427;52.204;7.202;2023-03-25T11:13:59;8.30;85.50
16627;DHT22;8427;52.204;7.202;2023-03-25T11:16:30;8.10;85.80
16627;DHT22;8427;52.204;7.202;2023-03-25T11:19:02;8.40;86.60
16627;DHT22;8427;52.204;7.202;2023-03-25T11:21:32;8.50;86.80
16627;DHT22;8427;52.204;7.202;2023-03-25T11:24:05;8.40;87.00
16627;DHT22;8427;52.204;7.202;2023-03-25T11:26:37;8.50;87.40
16627;DHT22;8427;52.204;7.202;2023-03-25T11:29:08;8.30;85.50
16627;DHT22;8427;52.204;7.202;2023-03-25T11:31:40;8.30;84.80
16627;DHT22;8427;52.204;7.202;2023-03-25T11:34:17;8.10;86.40
16627;DHT22;8427;52.204;7.202;2023-03-25T11:36:52;8.00;86.40
16627;DHT22;8427;52.204;7.202;2023-03-25T11:39:28;7.60;87.70
16627;DHT22;8427;52.204;7.202;2023-03-25T11:41:57;7.90;88.90
16627;DHT22;8427;52.204;7.202;2023-03-25T11:44:27;7.90;89.40
16627;DHT22;8427;52.204;7.202;2023-03-25T11:46:58;7.90;88.90
16627;DHT22;8427;52.204;7.202;2023-03-25T11:49:29;8.10;89.70
16627;DHT22;8427;52.204;7.202;2023-03-25T11:52:05;8.10;89.40
16627;DHT22;8427;52.204;7.202;2023-03-25T11:54:35;8.20;89.30
16627;DHT22;8427;52.204;7.202;2023-03-25T11:57:06;8.30;89.10
16627;DHT22;8427;52.204;7.202;2023-03-25T11:59:42;8.20;89.20
16627;DHT22;8427;52.204;7.202;2023-03-25T12:02:21;8.10;89.30
16627;DHT22;8427;52.204;7.202;2023-03-25T12:04:58;8.30;89.50
16627;DHT22;8427;52.204;7.202;2023-03-25T12:07:27;8.40;89.80
16627;DHT22;8427;52.204;7.202;2023-03-25T12:09:56;8.50;89.80
16627;DHT22;8427;52.204;7.202;2023-03-25T12:12:37;8.60;89.00
16627;DHT22;8427;52.204;7.202;2023-03-25T12:15:16;8.90;88.70
16627;DHT22;8427;52.204;7.202;2023-03-25T12:17:54;8.90;88.70
16627;DHT22;8427;52.204;7.202;2023-03-25T12:20:30;9.00;87.70
16627;DHT22;8427;52.204;7.202;2023-03-25T12:23:01;9.30;87.60
16627;DHT22;8427;52.204;7.202;2023-03-25T12:25:48;9.30;87.10
16627;DHT22;8427;52.204;7.202;2023-03-25T12:31:22;9.30;85.70
16627;DHT22;8427;52.204;7.202;2023-03-25T12:34:02;9.30;85.90
16627;DHT22;8427;52.204;7.202;2023-03-25T12:36:40;9.10;86.50
16627;DHT22;8427;52.204;7.202;2023-03-25T12:39:21;8.80;86.70
16627;DHT22;8427;52.204;7.202;2023-03-25T12:42:15;8.80;87.20
16627;DHT22;8427;52.204;7.202;2023-03-25T12:44:55;8.70;88.30
16627;DHT22;8427;52.204;7.202;2023-03-25T12:47:29;8.70;87.50
16627;DHT22;8427;52.204;7.202;2023-03-25T12:50:16;8.90;86.40
16627;DHT22;8427;52.204;7.202;2023-03-25T12:52:55;8.70;87.20
16627;DHT22;8427;52.204;7.202;2023-03-25T12:55:44;8.80;85.90
16627;DHT22;8427;52.204;7.202;2023-03-25T13:01:21;8.50;86.20
16627;DHT22;8427;52.204;7.202;2023-03-25T13:04:17;8.90;87.40
16627;DHT22;8427;52.204;7.202;2023-03-25T13:06:56;9.10;87.20
16627;DHT22;8427;52.204;7.202;2023-03-25T13:09:29;9.60;87.00
16627;DHT22;8427;52.204;7.202;2023-03-25T13:12:02;9.90;86.50
16627;DHT22;8427;52.204;7.202;2023-03-25T13:14:34;10.40;87.60
16627;DHT22;8427;52.204;7.202;2023-03-25T13:17:09;10.80;86.90
16627;DHT22;8427;52.204;7.202;2023-03-25T13:19:40;11.10;85.20
16627;DHT22;8427;52.204;7.202;2023-03-25T13:22:16;11.30;82.40
16627;DHT22;8427;52.204;7.202;2023-03-25T13:24:50;11.30;82.20
16627;DHT22;8427;52.204;7.202;2023-03-25T13:27:20;11.30;81.90
16627;DHT22;8427;52.204;7.202;2023-03-25T13:29:51;11.20;80.10
16627;DHT22;8427;52.204;7.202;2023-03-25T13:32:23;11.20;81.40
16627;DHT22;8427;52.204;7.202;2023-03-25T13:34:56;11.30;82.10
16627;DHT22;8427;52.204;7.202;2023-03-25T13:37:31;11.40;81.30
16627;DHT22;8427;52.204;7.202;2023-03-25T13:40:12;11.20;80.60
16627;DHT22;8427;52.204;7.202;2023-03-25T13:42:49;10.90;79.20
16627;DHT22;8427;52.204;7.202;2023-03-25T13:45:22;10.80;81.20
16627;DHT22;8427;52.204;7.202;2023-03-25T13:47:56;10.70;80.70
16627;DHT22;8427;52.204;7.202;2023-03-25T13:50:30;10.80;80.90
16627;DHT22;8427;52.204;7.202;2023-03-25T13:53:03;10.90;80.70
16627;DHT22;8427;52.204;7.202;2023-03-25T13:55:36;10.80;80.50
16627;DHT22;8427;52.204;7.202;2023-03-25T13:58:31;10.60;80.70
16627;DHT22;8427;52.204;7.202;2023-03-25T14:01:20;10.80;80.80
16627;DHT22;8427;52.204;7.202;2023-03-25T14:04:36;11.00;79.60
16627;DHT22;8427;52.204;7.202;2023-03-25T14:07:31;10.90;78.80
16627;DHT22;8427;52.204;7.202;2023-03-25T14:10:40;10.90;80.00
16627;DHT22;8427;52.204;7.202;2023-03-25T14:13:15;10.80;79.40
16627;DHT22;8427;52.204;7.202;2023-03-25T14:15:52;10.90;78.30
16627;DHT22;8427;52.204;7.202;2023-03-25T14:18:22;10.80;77.80
16627;DHT22;8427;52.204;7.202;2023-03-25T14:20:50;10.80;77.80
16627;DHT22;8427;52.204;7.202;2023-03-25T14:23:20;10.80;78.40
16627;DHT22;8427;52.204;7.202;2023-03-25T14:25:53;10.80;79.00
16627;DHT22;8427;52.204;7.202;2023-03-25T14:28:32;10.90;78.70
16627;DHT22;8427;52.204;7.202;2023-03-25T14:31:08;10.70;78.00
16627;DHT22;8427;52.204;7.202;2023-03-25T14:34:23;11.00;79.90
16627;DHT22;8427;52.204;7.202;2023-03-25T14:37:26;11.20;77.10
16627;DHT22;8427;52.204;7.202;2023-03-25T14:39:58;11.20;77.60
16627;DHT22;8427;52.204;7.202;2023-03-25T14:42:39;11.30;77.50
16627;DHT22;8427;52.204;7.202;2023-03-25T14:45:36;11.70;77.40
16627;DHT22;8427;52.204;7.202;2023-03-25T14:48:23;11.80;75.90
16627;DHT22;8427;52.204;7.202;2023-03-25T14:51:13;11.80;76.00
16627;DHT22;8427;52.204;7.202;2023-03-25T14:53:49;11.70;75.40
16627;DHT22;8427;52.204;7.202;2023-03-25T14:56:22;11.90;74.90
16627;DHT22;8427;52.204;7.202;2023-03-25T14:58:53;11.50;76.00
16627;DHT22;8427;52.204;7.202;2023-03-25T15:01:29;11.60;75.90
16627;DHT22;8427;52.204;7.202;2023-03-25T15:04:10;11.30;76.40
16627;DHT22;8427;52.204;7.202;2023-03-25T15:06:41;11.10;76.90
16627;DHT22;8427;52.204;7.202;2023-03-25T15:09:10;11.10;77.20
16627;DHT22;8427;52.204;7.202;2023-03-25T15:11:43;11.00;77.00
16627;DHT22;8427;52.204;7.202;2023-03-25T15:14:17;11.20;77.20
16627;DHT22;8427;52.204;7.202;2023-03-25T15:16:58;11.40;76.90
16627;DHT22;8427;52.204;7.202;2023-03-25T15:19:26;11.40;76.30
16627;DHT22;8427;52.204;7.202;2023-03-25T15:22:06;11.60;74.30
16627;DHT22;8427;52.204;7.202;2023-03-25T15:24:49;11.60;75.50
16627;DHT22;8427;52.204;7.202;2023-03-25T15:27:32;11.50;75.40
16627;DHT22;8427;52.204;7.202;2023-03-25T15:30:16;11.20;75.40
16627;DHT22;8427;52.204;7.202;2023-03-25T15:32:58;11.30;75.10
16627;DHT22;8427;52.204;7.202;2023-03-25T15:35:41;11.20;73.60
16627;DHT22;8427;52.204;7.202;2023-03-25T15:38:27;11.20;73.80
16627;DHT22;8427;52.204;7.202;2023-03-25T15:41:10;11.20;72.70
16627;DHT22;8427;52.204;7.202;2023-03-25T15:43:51;11.20;75.00
16627;DHT22;8427;52.204;7.202;2023-03-25T15:49:41;9.70;78.10
16627;DHT22;8427;52.204;7.202;2023-03-25T15:52:22;9.70;79.90
16627;DHT22;8427;52.204;7.202;2023-03-25T15:54:53;9.20;80.00
16627;DHT22;8427;52.204;7.202;2023-03-25T15:57:25;9.30;80.20
16627;DHT22;8427;52.204;7.202;2023-03-25T15:59:59;9.30;80.40
16627;DHT22;8427;52.204;7.202;2023-03-25T16:02:35;9.30;79.10
16627;DHT22;8427;52.204;7.202;2023-03-25T16:05:06;9.10;79.90
16627;DHT22;8427;52.204;7.202;2023-03-25T16:07:34;9.20;79.30
16627;DHT22;8427;52.204;7.202;2023-03-25T16:10:12;9.30;80.10
16627;DHT22;8427;52.204;7.202;2023-03-25T16:12:43;9.10;79.90
16627;DHT22;8427;52.204;7.202;2023-03-25T16:15:14;9.30;79.10
16627;DHT22;8427;52.204;7.202;2023-03-25T16:17:44;9.20;79.40
16627;DHT22;8427;52.204;7.202;2023-03-25T16:20:15;9.20;79.60
16627;DHT22;8427;52.204;7.202;2023-03-25T16:22:47;9.10;79.60
16627;DHT22;8427;52.204;7.202;2023-03-25T16:25:18;9.20;79.80
16627;DHT22;8427;52.204;7.202;2023-03-25T16:27:51;9.30;80.40
16627;DHT22;8427;52.204;7.202;2023-03-25T16:30:23;9.00;81.60
16627;DHT22;8427;52.204;7.202;2023-03-25T16:32:52;9.00;83.00
16627;DHT22;8427;52.204;7.202;2023-03-25T16:35:30;8.80;84.80
16627;DHT22;8427;52.204;7.202;2023-03-25T16:37:58;8.50;85.50
16627;DHT22;8427;52.204;7.202;2023-03-25T16:40:30;8.30;86.40
16627;DHT22;8427;52.204;7.202;2023-03-25T16:43:03;8.10;86.70
16627;DHT22;8427;52.204;7.202;2023-03-25T16:45:32;8.00;86.70
16627;DHT22;8427;52.204;7.202;2023-03-25T16:48:06;7.90;86.40
16627;DHT22;8427;52.204;7.202;2023-03-25T16:50:35;7.90;87.40